PWSweather.com
Personal Weather Stations
Station Observations
WD4JKH
Forsyth, GA 31029

Forsyth, GA 31029

Lat: 33.033225, Lon: -83.927995

Elevation: 709

Station Type: Davis Vantage VUE

High Low Average
Temperature 87.7°F30.9°C 69.2°F20.7°C 75.3°F24.1°C
Dew Point 72.9°F22.7°C 68.1°F20.1°C 70.0°F21.1°C
Winds 5.8 mph 9.3 kmh Calm Calm 2.0 mph ENE3.2 kmh ENE
Wind Gusts 12.0 mph19.3 kmh 1.0 mph1.6 kmh 5.0 mph8.0 kmh
Humidity 97% 52% 85%
Pressure 30.06 in1017.9 mb 29.97 in1014.9 mb -
Precipitation 0.00 in0.0 mm - -
Hour Temp Dew Point Humidity Winds Wind Gusts Pressure Precip Precip Rate Daily Precip Total
12:02 AM 73.0°F22.8°C 69.6°F20.9°C 89% 2.3 mph NE3.7 kmh NE 6.0 mph9.7 kmh 30.06 in1017.9 mb 0.00 in0.0 mm 0.00 in0.0 mm 0.00 in0.0 mm
12:07 AM 72.9°F22.7°C 69.5°F20.8°C 89% 2.0 mph NE3.2 kmh NE 6.0 mph9.7 kmh 30.06 in1017.9 mb 0.00 in0.0 mm 0.00 in0.0 mm 0.00 in0.0 mm
12:12 AM 72.9°F22.7°C 69.5°F20.8°C 89% 2.2 mph NNE3.5 kmh NNE 6.0 mph9.7 kmh 30.06 in1017.9 mb 0.00 in0.0 mm 0.00 in0.0 mm 0.00 in0.0 mm
12:17 AM 72.8°F22.7°C 69.7°F20.9°C 90% 2.8 mph NE4.5 kmh NE 5.0 mph8.0 kmh 30.06 in1017.9 mb 0.00 in0.0 mm 0.00 in0.0 mm 0.00 in0.0 mm
12:22 AM 72.7°F22.6°C 69.6°F20.9°C 90% 1.8 mph NE2.9 kmh NE 5.0 mph8.0 kmh 30.06 in1017.9 mb 0.00 in0.0 mm 0.00 in0.0 mm 0.00 in0.0 mm
12:27 AM 72.7°F22.6°C 69.6°F20.9°C 90% 2.1 mph NE3.4 kmh NE 5.0 mph8.0 kmh 30.06 in1017.9 mb 0.00 in0.0 mm 0.00 in0.0 mm 0.00 in0.0 mm
12:32 AM 72.6°F22.6°C 69.8°F21.0°C 91% 2.2 mph NE3.5 kmh NE 5.0 mph8.0 kmh 30.06 in1017.9 mb 0.00 in0.0 mm 0.00 in0.0 mm 0.00 in0.0 mm
12:37 AM 72.6°F22.6°C 69.8°F21.0°C 91% 2.4 mph ENE3.9 kmh ENE 5.0 mph8.0 kmh 30.06 in1017.9 mb 0.00 in0.0 mm 0.00 in0.0 mm 0.00 in0.0 mm
12:42 AM 72.6°F22.6°C 69.8°F21.0°C 91% 1.3 mph E2.1 kmh E 5.0 mph8.0 kmh 30.06 in1017.9 mb 0.00 in0.0 mm 0.00 in0.0 mm 0.00 in0.0 mm
12:47 AM 72.6°F22.6°C 69.8°F21.0°C 91% 1.9 mph ENE3.1 kmh ENE 5.0 mph8.0 kmh 30.06 in1017.9 mb 0.00 in0.0 mm 0.00 in0.0 mm 0.00 in0.0 mm
12:52 AM 72.6°F22.6°C 69.8°F21.0°C 91% 2.1 mph ENE3.4 kmh ENE 5.0 mph8.0 kmh 30.06 in1017.9 mb 0.00 in0.0 mm 0.00 in0.0 mm 0.00 in0.0 mm
12:57 AM 72.6°F22.6°C 69.8°F21.0°C 91% 1.9 mph NE3.1 kmh NE 5.0 mph8.0 kmh 30.05 in1017.6 mb 0.00 in0.0 mm 0.00 in0.0 mm 0.00 in0.0 mm
01:02 AM 72.5°F22.5°C 70.0°F21.1°C 92% 1.0 mph ENE1.6 kmh ENE 5.0 mph8.0 kmh 30.05 in1017.6 mb 0.00 in0.0 mm 0.00 in0.0 mm 0.00 in0.0 mm
01:07 AM 72.5°F22.5°C 70.0°F21.1°C 92% 1.1 mph E1.8 kmh E 4.0 mph6.4 kmh 30.05 in1017.6 mb 0.00 in0.0 mm 0.00 in0.0 mm 0.00 in0.0 mm
01:12 AM 72.5°F22.5°C 70.0°F21.1°C 92% 1.6 mph NE2.6 kmh NE 4.0 mph6.4 kmh 30.05 in1017.6 mb 0.00 in0.0 mm 0.00 in0.0 mm 0.00 in0.0 mm
01:17 AM 72.4°F22.4°C 69.9°F21.1°C 92% 1.6 mph NE2.6 kmh NE 3.0 mph4.8 kmh 30.05 in1017.6 mb 0.00 in0.0 mm 0.00 in0.0 mm 0.00 in0.0 mm
01:22 AM 72.4°F22.4°C 69.9°F21.1°C 92% 1.6 mph NE2.6 kmh NE 3.0 mph4.8 kmh 30.04 in1017.3 mb 0.00 in0.0 mm 0.00 in0.0 mm 0.00 in0.0 mm
01:27 AM 72.3°F22.4°C 69.8°F21.0°C 92% 2.2 mph NE3.5 kmh NE 4.0 mph6.4 kmh 30.04 in1017.3 mb 0.00 in0.0 mm 0.00 in0.0 mm 0.00 in0.0 mm
01:32 AM 72.3°F22.4°C 69.8°F21.0°C 92% 2.4 mph NE3.9 kmh NE 5.0 mph8.0 kmh 30.04 in1017.3 mb 0.00 in0.0 mm 0.00 in0.0 mm 0.00 in0.0 mm
01:37 AM 72.2°F22.3°C 69.7°F20.9°C 92% 2.2 mph NE3.5 kmh NE 6.0 mph9.7 kmh 30.04 in1017.3 mb 0.00 in0.0 mm 0.00 in0.0 mm 0.00 in0.0 mm
01:42 AM 72.1°F22.3°C 69.9°F21.1°C 93% 3.3 mph NE5.3 kmh NE 6.0 mph9.7 kmh 30.04 in1017.3 mb 0.00 in0.0 mm 0.00 in0.0 mm 0.00 in0.0 mm
01:47 AM 72.0°F22.2°C 69.8°F21.0°C 93% 2.7 mph NE4.3 kmh NE 6.0 mph9.7 kmh 30.04 in1017.3 mb 0.00 in0.0 mm 0.00 in0.0 mm 0.00 in0.0 mm
01:52 AM 71.9°F22.2°C 69.7°F20.9°C 93% 2.4 mph NE3.9 kmh NE 6.0 mph9.7 kmh 30.03 in1016.9 mb 0.00 in0.0 mm 0.00 in0.0 mm 0.00 in0.0 mm
01:57 AM 71.8°F22.1°C 69.7°F20.9°C 93% 2.8 mph NE4.5 kmh NE 6.0 mph9.7 kmh 30.03 in1016.9 mb 0.00 in0.0 mm 0.00 in0.0 mm 0.00 in0.0 mm
02:02 AM 71.8°F22.1°C 69.6°F20.9°C 93% 2.7 mph ENE4.3 kmh ENE 5.0 mph8.0 kmh 30.04 in1017.3 mb 0.00 in0.0 mm 0.00 in0.0 mm 0.00 in0.0 mm
02:07 AM 71.8°F22.1°C 69.7°F20.9°C 93% 2.0 mph ENE3.2 kmh ENE 6.0 mph9.7 kmh 30.03 in1016.9 mb 0.00 in0.0 mm 0.00 in0.0 mm 0.00 in0.0 mm
02:12 AM 71.8°F22.1°C 69.6°F20.9°C 93% 1.7 mph ENE2.7 kmh ENE 6.0 mph9.7 kmh 30.03 in1016.9 mb 0.00 in0.0 mm 0.00 in0.0 mm 0.00 in0.0 mm
02:17 AM 71.8°F22.1°C 69.6°F20.9°C 93% 1.9 mph ENE3.1 kmh ENE 6.0 mph9.7 kmh 30.03 in1016.9 mb 0.00 in0.0 mm 0.00 in0.0 mm 0.00 in0.0 mm
02:22 AM 71.8°F22.1°C 69.7°F20.9°C 93% 2.0 mph ENE3.2 kmh ENE 4.0 mph6.4 kmh 30.03 in1016.9 mb 0.00 in0.0 mm 0.00 in0.0 mm 0.00 in0.0 mm
02:27 AM 71.8°F22.1°C 69.6°F20.9°C 93% 2.2 mph ENE3.5 kmh ENE 4.0 mph6.4 kmh 30.03 in1016.9 mb 0.00 in0.0 mm 0.00 in0.0 mm 0.00 in0.0 mm
02:32 AM 71.7°F22.1°C 69.5°F20.8°C 93% 1.6 mph E2.6 kmh E 4.0 mph6.4 kmh 30.03 in1016.9 mb 0.00 in0.0 mm 0.00 in0.0 mm 0.00 in0.0 mm
02:37 AM 71.7°F22.1°C 69.8°F21.0°C 94% 1.6 mph E2.6 kmh E 4.0 mph6.4 kmh 30.03 in1016.9 mb 0.00 in0.0 mm 0.00 in0.0 mm 0.00 in0.0 mm
02:42 AM 71.7°F22.1°C 69.8°F21.0°C 94% 1.8 mph E2.9 kmh E 4.0 mph6.4 kmh 30.03 in1016.9 mb 0.00 in0.0 mm 0.00 in0.0 mm 0.00 in0.0 mm
02:47 AM 71.7°F22.1°C 69.8°F21.0°C 94% 1.6 mph E2.6 kmh E 4.0 mph6.4 kmh 30.03 in1016.9 mb 0.00 in0.0 mm 0.00 in0.0 mm 0.00 in0.0 mm
02:52 AM 71.7°F22.1°C 69.8°F21.0°C 94% 1.5 mph E2.4 kmh E 4.0 mph6.4 kmh 30.03 in1016.9 mb 0.00 in0.0 mm 0.00 in0.0 mm 0.00 in0.0 mm
02:57 AM 71.6°F22.0°C 69.8°F21.0°C 94% 1.5 mph ENE2.4 kmh ENE 3.0 mph4.8 kmh 30.02 in1016.6 mb 0.00 in0.0 mm 0.00 in0.0 mm 0.00 in0.0 mm
03:01 AM 71.6°F22.0°C 69.8°F21.0°C 94% 1.5 mph E2.4 kmh E 3.0 mph4.8 kmh 30.02 in1016.6 mb 0.00 in0.0 mm 0.00 in0.0 mm 0.00 in0.0 mm
03:06 AM 71.6°F22.0°C 69.8°F21.0°C 94% 1.6 mph E2.6 kmh E 4.0 mph6.4 kmh 30.02 in1016.6 mb 0.00 in0.0 mm 0.00 in0.0 mm 0.00 in0.0 mm
03:11 AM 71.6°F22.0°C 70.1°F21.2°C 95% 1.9 mph E3.1 kmh E 4.0 mph6.4 kmh 30.02 in1016.6 mb 0.00 in0.0 mm 0.00 in0.0 mm 0.00 in0.0 mm
03:16 AM 71.5°F21.9°C 70.0°F21.1°C 95% 1.8 mph E2.9 kmh E 4.0 mph6.4 kmh 30.02 in1016.6 mb 0.00 in0.0 mm 0.00 in0.0 mm 0.00 in0.0 mm
03:21 AM 71.5°F21.9°C 70.0°F21.1°C 95% 1.7 mph NE2.7 kmh NE 4.0 mph6.4 kmh 30.02 in1016.6 mb 0.00 in0.0 mm 0.00 in0.0 mm 0.00 in0.0 mm
03:26 AM 71.4°F21.9°C 69.9°F21.1°C 95% 2.6 mph NE4.2 kmh NE 4.0 mph6.4 kmh 30.01 in1016.3 mb 0.00 in0.0 mm 0.00 in0.0 mm 0.00 in0.0 mm
03:31 AM 71.4°F21.9°C 69.9°F21.1°C 95% 1.3 mph ENE2.1 kmh ENE 4.0 mph6.4 kmh 30.02 in1016.6 mb 0.00 in0.0 mm 0.00 in0.0 mm 0.00 in0.0 mm
03:36 AM 71.1°F21.7°C 69.6°F20.9°C 95% 2.8 mph NE4.5 kmh NE 5.0 mph8.0 kmh 30.01 in1016.3 mb 0.00 in0.0 mm 0.00 in0.0 mm 0.00 in0.0 mm
03:41 AM 70.9°F21.6°C 69.4°F20.8°C 95% 1.6 mph NE2.6 kmh NE 5.0 mph8.0 kmh 30.01 in1016.3 mb 0.00 in0.0 mm 0.00 in0.0 mm 0.00 in0.0 mm
03:46 AM 70.7°F21.5°C 69.2°F20.7°C 95% 1.3 mph NE2.1 kmh NE 5.0 mph8.0 kmh 30.01 in1016.3 mb 0.00 in0.0 mm 0.00 in0.0 mm 0.00 in0.0 mm
03:51 AM 70.7°F21.5°C 69.5°F20.8°C 96% 1.8 mph NE2.9 kmh NE 5.0 mph8.0 kmh 30.01 in1016.3 mb 0.00 in0.0 mm 0.00 in0.0 mm 0.00 in0.0 mm
03:56 AM 70.6°F21.4°C 69.4°F20.8°C 96% 1.4 mph ENE2.3 kmh ENE 5.0 mph8.0 kmh 30.01 in1016.3 mb 0.00 in0.0 mm 0.00 in0.0 mm 0.00 in0.0 mm
04:01 AM 70.5°F21.4°C 69.3°F20.7°C 96% 2.0 mph NE3.2 kmh NE 5.0 mph8.0 kmh 30.01 in1016.3 mb 0.00 in0.0 mm 0.00 in0.0 mm 0.00 in0.0 mm
04:06 AM 70.5°F21.4°C 69.3°F20.7°C 96% 2.5 mph NE4.0 kmh NE 5.0 mph8.0 kmh 30.01 in1016.3 mb 0.00 in0.0 mm 0.00 in0.0 mm 0.00 in0.0 mm
04:11 AM 70.5°F21.4°C 69.3°F20.7°C 96% 1.8 mph ENE2.9 kmh ENE 5.0 mph8.0 kmh 30.01 in1016.3 mb 0.00 in0.0 mm 0.00 in0.0 mm 0.00 in0.0 mm
04:16 AM 70.5°F21.4°C 69.3°F20.7°C 96% 1.9 mph ENE3.1 kmh ENE 5.0 mph8.0 kmh 30.00 in1015.9 mb 0.00 in0.0 mm 0.00 in0.0 mm 0.00 in0.0 mm
04:21 AM 70.5°F21.4°C 69.3°F20.7°C 96% 2.1 mph NE3.4 kmh NE 6.0 mph9.7 kmh 30.00 in1015.9 mb 0.00 in0.0 mm 0.00 in0.0 mm 0.00 in0.0 mm
04:26 AM 70.5°F21.4°C 69.3°F20.7°C 96% 2.2 mph NE3.5 kmh NE 7.0 mph11.3 kmh 30.00 in1015.9 mb 0.00 in0.0 mm 0.00 in0.0 mm 0.00 in0.0 mm
04:31 AM 70.4°F21.3°C 69.2°F20.7°C 96% 2.8 mph NE4.5 kmh NE 7.0 mph11.3 kmh 30.00 in1015.9 mb 0.00 in0.0 mm 0.00 in0.0 mm 0.00 in0.0 mm
04:36 AM 70.4°F21.3°C 69.2°F20.7°C 96% 1.9 mph ENE3.1 kmh ENE 7.0 mph11.3 kmh 30.00 in1015.9 mb 0.00 in0.0 mm 0.00 in0.0 mm 0.00 in0.0 mm
04:41 AM 70.3°F21.3°C 69.1°F20.6°C 96% 1.8 mph NE2.9 kmh NE 7.0 mph11.3 kmh 30.00 in1015.9 mb 0.00 in0.0 mm 0.00 in0.0 mm 0.00 in0.0 mm
04:46 AM 70.3°F21.3°C 69.1°F20.6°C 96% 2.0 mph NE3.2 kmh NE 5.0 mph8.0 kmh 30.00 in1015.9 mb 0.00 in0.0 mm 0.00 in0.0 mm 0.00 in0.0 mm
04:51 AM 70.2°F21.2°C 69.0°F20.6°C 96% 1.5 mph NE2.4 kmh NE 4.0 mph6.4 kmh 30.00 in1015.9 mb 0.00 in0.0 mm 0.00 in0.0 mm 0.00 in0.0 mm
04:56 AM 70.1°F21.2°C 68.9°F20.5°C 96% 2.0 mph NE3.2 kmh NE 4.0 mph6.4 kmh 30.00 in1015.9 mb 0.00 in0.0 mm 0.00 in0.0 mm 0.00 in0.0 mm
05:01 AM 70.0°F21.1°C 68.8°F20.4°C 96% 1.0 mph NE1.6 kmh NE 4.0 mph6.4 kmh 30.00 in1015.9 mb 0.00 in0.0 mm 0.00 in0.0 mm 0.00 in0.0 mm
05:06 AM 69.9°F21.1°C 69.0°F20.6°C 97% 1.7 mph NE2.7 kmh NE 3.0 mph4.8 kmh 30.00 in1015.9 mb 0.00 in0.0 mm 0.00 in0.0 mm 0.00 in0.0 mm
05:11 AM 69.8°F21.0°C 68.9°F20.5°C 97% 1.7 mph NE2.7 kmh NE 4.0 mph6.4 kmh 30.01 in1016.3 mb 0.00 in0.0 mm 0.00 in0.0 mm 0.00 in0.0 mm
05:16 AM 69.7°F20.9°C 68.8°F20.4°C 97% 2.1 mph NE3.4 kmh NE 4.0 mph6.4 kmh 30.01 in1016.3 mb 0.00 in0.0 mm 0.00 in0.0 mm 0.00 in0.0 mm
05:21 AM 69.7°F20.9°C 68.8°F20.4°C 97% 1.0 mph ENE1.6 kmh ENE 4.0 mph6.4 kmh 30.01 in1016.3 mb 0.00 in0.0 mm 0.00 in0.0 mm 0.00 in0.0 mm
05:26 AM 69.7°F20.9°C 68.8°F20.4°C 97% 1.0 mph NNE1.6 kmh NNE 4.0 mph6.4 kmh 30.01 in1016.3 mb 0.00 in0.0 mm 0.00 in0.0 mm 0.00 in0.0 mm
05:31 AM 69.6°F20.9°C 68.7°F20.4°C 97% 1.2 mph NE1.9 kmh NE 4.0 mph6.4 kmh 30.01 in1016.3 mb 0.00 in0.0 mm 0.00 in0.0 mm 0.00 in0.0 mm
05:36 AM 69.6°F20.9°C 68.7°F20.4°C 97% 1.2 mph NNE1.9 kmh NNE 4.0 mph6.4 kmh 30.01 in1016.3 mb 0.00 in0.0 mm 0.00 in0.0 mm 0.00 in0.0 mm
05:41 AM 69.5°F20.8°C 68.6°F20.3°C 97% Calm Calm 3.0 mph4.8 kmh 30.01 in1016.3 mb 0.00 in0.0 mm 0.00 in0.0 mm 0.00 in0.0 mm
05:46 AM 69.4°F20.8°C 68.5°F20.3°C 97% 1.5 mph NE2.4 kmh NE 2.0 mph3.2 kmh 30.01 in1016.3 mb 0.00 in0.0 mm 0.00 in0.0 mm 0.00 in0.0 mm
05:51 AM 69.4°F20.8°C 68.5°F20.3°C 97% 1.0 mph NE1.6 kmh NE 2.0 mph3.2 kmh 30.01 in1016.3 mb 0.00 in0.0 mm 0.00 in0.0 mm 0.00 in0.0 mm
05:56 AM 69.3°F20.7°C 68.4°F20.2°C 97% 1.8 mph NE2.9 kmh NE 3.0 mph4.8 kmh 30.01 in1016.3 mb 0.00 in0.0 mm 0.00 in0.0 mm 0.00 in0.0 mm
06:01 AM 69.3°F20.7°C 68.4°F20.2°C 97% 1.0 mph NE1.6 kmh NE 3.0 mph4.8 kmh 30.01 in1016.3 mb 0.00 in0.0 mm 0.00 in0.0 mm 0.00 in0.0 mm
06:06 AM 69.3°F20.7°C 68.4°F20.2°C 97% 1.0 mph NE1.6 kmh NE 3.0 mph4.8 kmh 30.01 in1016.3 mb 0.00 in0.0 mm 0.00 in0.0 mm 0.00 in0.0 mm
06:11 AM 69.2°F20.7°C 68.3°F20.2°C 97% 1.4 mph NE2.3 kmh NE 3.0 mph4.8 kmh 30.01 in1016.3 mb 0.00 in0.0 mm 0.00 in0.0 mm 0.00 in0.0 mm
06:16 AM 69.3°F20.7°C 68.4°F20.2°C 97% 1.1 mph NE1.8 kmh NE 3.0 mph4.8 kmh 30.02 in1016.6 mb 0.00 in0.0 mm 0.00 in0.0 mm 0.00 in0.0 mm
06:21 AM 69.3°F20.7°C 68.4°F20.2°C 97% 2.6 mph NE4.2 kmh NE 4.0 mph6.4 kmh 30.02 in1016.6 mb 0.00 in0.0 mm 0.00 in0.0 mm 0.00 in0.0 mm
06:26 AM 69.3°F20.7°C 68.4°F20.2°C 97% 1.0 mph NE1.6 kmh NE 4.0 mph6.4 kmh 30.02 in1016.6 mb 0.00 in0.0 mm 0.00 in0.0 mm 0.00 in0.0 mm
06:31 AM 69.3°F20.7°C 68.4°F20.2°C 97% 1.7 mph NE2.7 kmh NE 4.0 mph6.4 kmh 30.02 in1016.6 mb 0.00 in0.0 mm 0.00 in0.0 mm 0.00 in0.0 mm
06:36 AM 69.3°F20.7°C 68.4°F20.2°C 97% Calm Calm 4.0 mph6.4 kmh 30.02 in1016.6 mb 0.00 in0.0 mm 0.00 in0.0 mm 0.00 in0.0 mm
06:41 AM 69.3°F20.7°C 68.4°F20.2°C 97% Calm Calm 3.0 mph4.8 kmh 30.02 in1016.6 mb 0.00 in0.0 mm 0.00 in0.0 mm 0.00 in0.0 mm
06:46 AM 69.3°F20.7°C 68.4°F20.2°C 97% Calm Calm 3.0 mph4.8 kmh 30.02 in1016.6 mb 0.00 in0.0 mm 0.00 in0.0 mm 0.00 in0.0 mm
06:51 AM 69.4°F20.8°C 68.5°F20.3°C 97% Calm Calm 3.0 mph4.8 kmh 30.03 in1016.9 mb 0.00 in0.0 mm 0.00 in0.0 mm 0.00 in0.0 mm
06:56 AM 69.4°F20.8°C 68.5°F20.3°C 97% Calm Calm 2.0 mph3.2 kmh 30.03 in1016.9 mb 0.00 in0.0 mm 0.00 in0.0 mm 0.00 in0.0 mm
07:01 AM 69.6°F20.9°C 68.7°F20.4°C 97% 1.7 mph ENE2.7 kmh ENE 3.0 mph4.8 kmh 30.03 in1016.9 mb 0.00 in0.0 mm 0.00 in0.0 mm 0.00 in0.0 mm
07:06 AM 69.7°F20.9°C 68.8°F20.4°C 97% 1.5 mph E2.4 kmh E 3.0 mph4.8 kmh 30.03 in1016.9 mb 0.00 in0.0 mm 0.00 in0.0 mm 0.00 in0.0 mm
07:11 AM 69.9°F21.1°C 69.0°F20.6°C 97% 1.3 mph ENE2.1 kmh ENE 4.0 mph6.4 kmh 30.03 in1016.9 mb 0.00 in0.0 mm 0.00 in0.0 mm 0.00 in0.0 mm
07:16 AM 69.9°F21.1°C 69.0°F20.6°C 97% Calm Calm 4.0 mph6.4 kmh 30.03 in1016.9 mb 0.00 in0.0 mm 0.00 in0.0 mm 0.00 in0.0 mm
07:21 AM 70.0°F21.1°C 69.1°F20.6°C 97% Calm Calm 4.0 mph6.4 kmh 30.03 in1016.9 mb 0.00 in0.0 mm 0.00 in0.0 mm 0.00 in0.0 mm
07:26 AM 70.0°F21.1°C 69.1°F20.6°C 97% 1.2 mph E1.9 kmh E 4.0 mph6.4 kmh 30.03 in1016.9 mb 0.00 in0.0 mm 0.00 in0.0 mm 0.00 in0.0 mm
07:31 AM 70.0°F21.1°C 69.1°F20.6°C 97% 1.8 mph NE2.9 kmh NE 3.0 mph4.8 kmh 30.04 in1017.3 mb 0.00 in0.0 mm 0.00 in0.0 mm 0.00 in0.0 mm
07:36 AM 70.1°F21.2°C 69.2°F20.7°C 97% 1.0 mph ENE1.6 kmh ENE 3.0 mph4.8 kmh 30.04 in1017.3 mb 0.00 in0.0 mm 0.00 in0.0 mm 0.00 in0.0 mm
07:41 AM 70.1°F21.2°C 69.2°F20.7°C 97% 1.5 mph E2.4 kmh E 3.0 mph4.8 kmh 30.04 in1017.3 mb 0.00 in0.0 mm 0.00 in0.0 mm 0.00 in0.0 mm
07:46 AM 70.2°F21.2°C 69.3°F20.7°C 97% 1.2 mph E1.9 kmh E 3.0 mph4.8 kmh 30.04 in1017.3 mb 0.00 in0.0 mm 0.00 in0.0 mm 0.00 in0.0 mm
07:51 AM 70.2°F21.2°C 69.3°F20.7°C 97% 2.2 mph E3.5 kmh E 3.0 mph4.8 kmh 30.04 in1017.3 mb 0.00 in0.0 mm 0.00 in0.0 mm 0.00 in0.0 mm
07:56 AM 70.4°F21.3°C 69.5°F20.8°C 97% Calm Calm 3.0 mph4.8 kmh 30.05 in1017.6 mb 0.00 in0.0 mm 0.00 in0.0 mm 0.00 in0.0 mm
08:01 AM 70.5°F21.4°C 69.6°F20.9°C 97% Calm Calm 3.0 mph4.8 kmh 30.05 in1017.6 mb 0.00 in0.0 mm 0.00 in0.0 mm 0.00 in0.0 mm
08:06 AM 70.7°F21.5°C 69.8°F21.0°C 97% Calm Calm 3.0 mph4.8 kmh 30.05 in1017.6 mb 0.00 in0.0 mm 0.00 in0.0 mm 0.00 in0.0 mm
08:11 AM 70.9°F21.6°C 70.0°F21.1°C 97% 1.0 mph E1.6 kmh E 1.0 mph1.6 kmh 30.05 in1017.6 mb 0.00 in0.0 mm 0.00 in0.0 mm 0.00 in0.0 mm
08:16 AM 71.0°F21.7°C 69.8°F21.0°C 96% 1.3 mph E2.1 kmh E 2.0 mph3.2 kmh 30.05 in1017.6 mb 0.00 in0.0 mm 0.00 in0.0 mm 0.00 in0.0 mm
08:21 AM 71.1°F21.7°C 69.9°F21.1°C 96% Calm Calm 3.0 mph4.8 kmh 30.05 in1017.6 mb 0.00 in0.0 mm 0.00 in0.0 mm 0.00 in0.0 mm
08:26 AM 71.3°F21.8°C 70.1°F21.2°C 96% 2.3 mph NE3.7 kmh NE 4.0 mph6.4 kmh 30.05 in1017.6 mb 0.00 in0.0 mm 0.00 in0.0 mm 0.00 in0.0 mm
08:31 AM 71.4°F21.9°C 70.2°F21.2°C 96% 1.3 mph NE2.1 kmh NE 4.0 mph6.4 kmh 30.05 in1017.6 mb 0.00 in0.0 mm 0.00 in0.0 mm 0.00 in0.0 mm
08:36 AM 71.6°F22.0°C 70.1°F21.2°C 95% 1.4 mph NE2.3 kmh NE 4.0 mph6.4 kmh 30.05 in1017.6 mb 0.00 in0.0 mm 0.00 in0.0 mm 0.00 in0.0 mm
08:41 AM 71.8°F22.1°C 70.3°F21.3°C 95% 1.3 mph NE2.1 kmh NE 4.0 mph6.4 kmh 30.05 in1017.6 mb 0.00 in0.0 mm 0.00 in0.0 mm 0.00 in0.0 mm
08:46 AM 71.9°F22.2°C 70.4°F21.3°C 95% 1.2 mph NNE1.9 kmh NNE 5.0 mph8.0 kmh 30.05 in1017.6 mb 0.00 in0.0 mm 0.00 in0.0 mm 0.00 in0.0 mm
08:51 AM 72.3°F22.4°C 70.8°F21.6°C 95% 1.2 mph NE1.9 kmh NE 5.0 mph8.0 kmh 30.05 in1017.6 mb 0.00 in0.0 mm 0.00 in0.0 mm 0.00 in0.0 mm
08:56 AM 73.0°F22.8°C 71.1°F21.7°C 94% 1.2 mph NE1.9 kmh NE 5.0 mph8.0 kmh 30.05 in1017.6 mb 0.00 in0.0 mm 0.00 in0.0 mm 0.00 in0.0 mm
09:00 AM 73.4°F23.0°C 70.9°F21.6°C 92% 2.4 mph NNE3.9 kmh NNE 5.0 mph8.0 kmh 30.05 in1017.6 mb 0.00 in0.0 mm 0.00 in0.0 mm 0.00 in0.0 mm
09:05 AM 73.6°F23.1°C 71.1°F21.7°C 92% 2.4 mph NE3.9 kmh NE 5.0 mph8.0 kmh 30.05 in1017.6 mb 0.00 in0.0 mm 0.00 in0.0 mm 0.00 in0.0 mm
09:10 AM 74.4°F23.6°C 71.6°F22.0°C 91% 1.4 mph N2.3 kmh N 5.0 mph8.0 kmh 30.05 in1017.6 mb 0.00 in0.0 mm 0.00 in0.0 mm 0.00 in0.0 mm
09:15 AM 75.0°F23.9°C 71.5°F21.9°C 89% 2.5 mph NE4.0 kmh NE 6.0 mph9.7 kmh 30.05 in1017.6 mb 0.00 in0.0 mm 0.00 in0.0 mm 0.00 in0.0 mm
09:20 AM 75.5°F24.2°C 72.0°F22.2°C 89% 1.0 mph NNE1.6 kmh NNE 6.0 mph9.7 kmh 30.05 in1017.6 mb 0.00 in0.0 mm 0.00 in0.0 mm 0.00 in0.0 mm
09:25 AM 75.8°F24.3°C 71.7°F22.1°C 87% 2.0 mph NE3.2 kmh NE 6.0 mph9.7 kmh 30.05 in1017.6 mb 0.00 in0.0 mm 0.00 in0.0 mm 0.00 in0.0 mm
09:30 AM 76.1°F24.5°C 71.6°F22.0°C 86% 2.4 mph NE3.9 kmh NE 6.0 mph9.7 kmh 30.05 in1017.6 mb 0.00 in0.0 mm 0.00 in0.0 mm 0.00 in0.0 mm
09:35 AM 76.3°F24.6°C 71.8°F22.1°C 86% 1.0 mph E1.6 kmh E 6.0 mph9.7 kmh 30.05 in1017.6 mb 0.00 in0.0 mm 0.00 in0.0 mm 0.00 in0.0 mm
09:40 AM 77.0°F25.0°C 72.1°F22.3°C 85% 1.3 mph NE2.1 kmh NE 6.0 mph9.7 kmh 30.05 in1017.6 mb 0.00 in0.0 mm 0.00 in0.0 mm 0.00 in0.0 mm
09:45 AM 77.6°F25.3°C 72.0°F22.2°C 83% 1.2 mph SE1.9 kmh SE 5.0 mph8.0 kmh 30.05 in1017.6 mb 0.00 in0.0 mm 0.00 in0.0 mm 0.00 in0.0 mm
09:50 AM 78.2°F25.7°C 72.0°F22.2°C 81% 2.6 mph E4.2 kmh E 4.0 mph6.4 kmh 30.05 in1017.6 mb 0.00 in0.0 mm 0.00 in0.0 mm 0.00 in0.0 mm
09:55 AM 78.3°F25.7°C 72.1°F22.3°C 81% 1.3 mph E2.1 kmh E 4.0 mph6.4 kmh 30.05 in1017.6 mb 0.00 in0.0 mm 0.00 in0.0 mm 0.00 in0.0 mm
10:00 AM 78.9°F26.1°C 72.7°F22.6°C 81% 1.0 mph E1.6 kmh E 4.0 mph6.4 kmh 30.05 in1017.6 mb 0.00 in0.0 mm 0.00 in0.0 mm 0.00 in0.0 mm
10:05 AM 79.6°F26.4°C 72.3°F22.4°C 78% 1.1 mph SE1.8 kmh SE 4.0 mph6.4 kmh 30.05 in1017.6 mb 0.00 in0.0 mm 0.00 in0.0 mm 0.00 in0.0 mm
10:10 AM 79.3°F26.3°C 71.8°F22.1°C 78% 1.4 mph E2.3 kmh E 5.0 mph8.0 kmh 30.05 in1017.6 mb 0.00 in0.0 mm 0.00 in0.0 mm 0.00 in0.0 mm
10:15 AM 79.3°F26.3°C 71.8°F22.1°C 78% Calm Calm 5.0 mph8.0 kmh 30.05 in1017.6 mb 0.00 in0.0 mm 0.00 in0.0 mm 0.00 in0.0 mm
10:20 AM 79.9°F26.6°C 72.2°F22.3°C 77% 2.9 mph NE4.7 kmh NE 5.0 mph8.0 kmh 30.05 in1017.6 mb 0.00 in0.0 mm 0.00 in0.0 mm 0.00 in0.0 mm
10:25 AM 80.0°F26.7°C 71.9°F22.2°C 76% 3.8 mph NE6.1 kmh NE 6.0 mph9.7 kmh 30.05 in1017.6 mb 0.00 in0.0 mm 0.00 in0.0 mm 0.00 in0.0 mm
10:30 AM 79.9°F26.6°C 71.8°F22.1°C 76% 2.0 mph NE3.2 kmh NE 7.0 mph11.3 kmh 30.05 in1017.6 mb 0.00 in0.0 mm 0.00 in0.0 mm 0.00 in0.0 mm
10:35 AM 80.6°F27.0°C 72.1°F22.3°C 75% 1.6 mph E2.6 kmh E 7.0 mph11.3 kmh 30.05 in1017.6 mb 0.00 in0.0 mm 0.00 in0.0 mm 0.00 in0.0 mm
10:40 AM 80.6°F27.0°C 71.5°F21.9°C 74% 2.9 mph ENE4.7 kmh ENE 7.0 mph11.3 kmh 30.05 in1017.6 mb 0.00 in0.0 mm 0.00 in0.0 mm 0.00 in0.0 mm
10:45 AM 80.4°F26.9°C 72.7°F22.6°C 77% 1.0 mph SW1.6 kmh SW 6.0 mph9.7 kmh 30.04 in1017.3 mb 0.00 in0.0 mm 0.00 in0.0 mm 0.00 in0.0 mm
10:50 AM 81.4°F27.4°C 72.9°F22.7°C 75% 1.5 mph ESE2.4 kmh ESE 6.0 mph9.7 kmh 30.04 in1017.3 mb 0.00 in0.0 mm 0.00 in0.0 mm 0.00 in0.0 mm
10:55 AM 81.3°F27.4°C 72.0°F22.2°C 73% 2.6 mph E4.2 kmh E 7.0 mph11.3 kmh 30.04 in1017.3 mb 0.00 in0.0 mm 0.00 in0.0 mm 0.00 in0.0 mm
11:00 AM 81.5°F27.5°C 71.6°F22.0°C 72% 3.1 mph ENE5.0 kmh ENE 7.0 mph11.3 kmh 30.04 in1017.3 mb 0.00 in0.0 mm 0.00 in0.0 mm 0.00 in0.0 mm
11:05 AM 81.7°F27.6°C 71.6°F22.0°C 71% 3.7 mph NE6.0 kmh NE 7.0 mph11.3 kmh 30.04 in1017.3 mb 0.00 in0.0 mm 0.00 in0.0 mm 0.00 in0.0 mm
11:10 AM 81.6°F27.6°C 71.9°F22.2°C 72% 1.1 mph NNE1.8 kmh NNE 6.0 mph9.7 kmh 30.04 in1017.3 mb 0.00 in0.0 mm 0.00 in0.0 mm 0.00 in0.0 mm
11:15 AM 82.0°F27.8°C 71.9°F22.2°C 71% 3.1 mph NE5.0 kmh NE 6.0 mph9.7 kmh 30.05 in1017.6 mb 0.00 in0.0 mm 0.00 in0.0 mm 0.00 in0.0 mm
11:20 AM 82.2°F27.9°C 71.7°F22.1°C 70% 1.2 mph SE1.9 kmh SE 6.0 mph9.7 kmh 30.05 in1017.6 mb 0.00 in0.0 mm 0.00 in0.0 mm 0.00 in0.0 mm
11:25 AM 82.2°F27.9°C 71.4°F21.9°C 70% 2.9 mph E4.7 kmh E 10.0 mph16.1 kmh 30.05 in1017.6 mb 0.00 in0.0 mm 0.00 in0.0 mm 0.00 in0.0 mm
11:30 AM 82.2°F27.9°C 71.7°F22.1°C 70% 1.4 mph E2.3 kmh E 10.0 mph16.1 kmh 30.04 in1017.3 mb 0.00 in0.0 mm 0.00 in0.0 mm 0.00 in0.0 mm
11:35 AM 82.0°F27.8°C 71.2°F21.8°C 70% 2.7 mph E4.3 kmh E 10.0 mph16.1 kmh 30.04 in1017.3 mb 0.00 in0.0 mm 0.00 in0.0 mm 0.00 in0.0 mm
11:40 AM 81.8°F27.7°C 71.3°F21.8°C 70% 1.0 mph NE1.6 kmh NE 10.0 mph16.1 kmh 30.04 in1017.3 mb 0.00 in0.0 mm 0.00 in0.0 mm 0.00 in0.0 mm
11:45 AM 82.7°F28.2°C 71.9°F22.2°C 70% 2.1 mph E3.4 kmh E 6.0 mph9.7 kmh 30.04 in1017.3 mb 0.00 in0.0 mm 0.00 in0.0 mm 0.00 in0.0 mm
11:50 AM 83.3°F28.5°C 71.9°F22.2°C 68% 2.1 mph NNE3.4 kmh NNE 6.0 mph9.7 kmh 30.04 in1017.3 mb 0.00 in0.0 mm 0.00 in0.0 mm 0.00 in0.0 mm
11:55 AM 82.9°F28.3°C 71.5°F21.9°C 68% 2.9 mph NE4.7 kmh NE 6.0 mph9.7 kmh 30.04 in1017.3 mb 0.00 in0.0 mm 0.00 in0.0 mm 0.00 in0.0 mm
12:01 PM 82.8°F28.2°C 71.4°F21.9°C 68% 3.6 mph E5.8 kmh E 7.0 mph11.3 kmh 30.04 in1017.3 mb 0.00 in0.0 mm 0.00 in0.0 mm 0.00 in0.0 mm
12:05 PM 82.8°F28.2°C 71.0°F21.7°C 67% 1.6 mph NE2.6 kmh NE 7.0 mph11.3 kmh 30.04 in1017.3 mb 0.00 in0.0 mm 0.00 in0.0 mm 0.00 in0.0 mm
12:11 PM 83.0°F28.3°C 70.7°F21.5°C 66% 2.7 mph E4.3 kmh E 7.0 mph11.3 kmh 30.04 in1017.3 mb 0.00 in0.0 mm 0.00 in0.0 mm 0.00 in0.0 mm
12:16 PM 83.5°F28.6°C 70.8°F21.6°C 65% 2.5 mph E4.0 kmh E 7.0 mph11.3 kmh 30.04 in1017.3 mb 0.00 in0.0 mm 0.00 in0.0 mm 0.00 in0.0 mm
12:20 PM 83.9°F28.8°C 70.2°F21.2°C 63% 3.6 mph ESE5.8 kmh ESE 8.0 mph12.9 kmh 30.03 in1016.9 mb 0.00 in0.0 mm 0.00 in0.0 mm 0.00 in0.0 mm
12:26 PM 84.3°F29.1°C 70.6°F21.4°C 63% 2.5 mph SE4.0 kmh SE 8.0 mph12.9 kmh 30.03 in1016.9 mb 0.00 in0.0 mm 0.00 in0.0 mm 0.00 in0.0 mm
12:31 PM 84.8°F29.3°C 70.6°F21.4°C 62% 3.8 mph E6.1 kmh E 8.0 mph12.9 kmh 30.03 in1016.9 mb 0.00 in0.0 mm 0.00 in0.0 mm 0.00 in0.0 mm
12:36 PM 84.8°F29.3°C 70.3°F21.3°C 62% 4.1 mph E6.6 kmh E 12.0 mph19.3 kmh 30.03 in1016.9 mb 0.00 in0.0 mm 0.00 in0.0 mm 0.00 in0.0 mm
12:41 PM 85.0°F29.4°C 70.8°F21.6°C 62% 2.8 mph ESE4.5 kmh ESE 12.0 mph19.3 kmh 30.02 in1016.6 mb 0.00 in0.0 mm 0.00 in0.0 mm 0.00 in0.0 mm
12:46 PM 85.6°F29.8°C 70.9°F21.6°C 61% 3.9 mph E6.3 kmh E 12.0 mph19.3 kmh 30.02 in1016.6 mb 0.00 in0.0 mm 0.00 in0.0 mm 0.00 in0.0 mm
12:51 PM 85.7°F29.8°C 70.0°F21.1°C 59% 4.5 mph E7.2 kmh E 12.0 mph19.3 kmh 30.02 in1016.6 mb 0.00 in0.0 mm 0.00 in0.0 mm 0.00 in0.0 mm
12:56 PM 85.8°F29.9°C 69.1°F20.6°C 57% 5.3 mph E8.5 kmh E 10.0 mph16.1 kmh 30.02 in1016.6 mb 0.00 in0.0 mm 0.00 in0.0 mm 0.00 in0.0 mm
01:01 PM 85.9°F29.9°C 69.1°F20.6°C 57% 3.0 mph ESE4.8 kmh ESE 10.0 mph16.1 kmh 30.02 in1016.6 mb 0.00 in0.0 mm 0.00 in0.0 mm 0.00 in0.0 mm
01:06 PM 86.4°F30.2°C 69.1°F20.6°C 56% 1.0 mph SW1.6 kmh SW 10.0 mph16.1 kmh 30.01 in1016.3 mb 0.00 in0.0 mm 0.00 in0.0 mm 0.00 in0.0 mm
01:11 PM 87.2°F30.7°C 69.6°F20.9°C 56% 1.9 mph ESE3.1 kmh ESE 10.0 mph16.1 kmh 30.01 in1016.3 mb 0.00 in0.0 mm 0.00 in0.0 mm 0.00 in0.0 mm
01:16 PM 87.3°F30.7°C 69.9°F21.1°C 56% 4.3 mph ESE6.9 kmh ESE 8.0 mph12.9 kmh 30.01 in1016.3 mb 0.00 in0.0 mm 0.00 in0.0 mm 0.00 in0.0 mm
01:21 PM 86.7°F30.4°C 69.6°F20.9°C 57% 3.8 mph ESE6.1 kmh ESE 8.0 mph12.9 kmh 30.01 in1016.3 mb 0.00 in0.0 mm 0.00 in0.0 mm 0.00 in0.0 mm
01:26 PM 86.6°F30.3°C 69.3°F20.7°C 56% 1.3 mph SW2.1 kmh SW 8.0 mph12.9 kmh 30.01 in1016.3 mb 0.00 in0.0 mm 0.00 in0.0 mm 0.00 in0.0 mm
01:31 PM 86.3°F30.2°C 69.5°F20.8°C 57% 3.6 mph ESE5.8 kmh ESE 8.0 mph12.9 kmh 30.01 in1016.3 mb 0.00 in0.0 mm 0.00 in0.0 mm 0.00 in0.0 mm
01:36 PM 85.5°F29.7°C 69.3°F20.7°C 58% 2.7 mph ESE4.3 kmh ESE 10.0 mph16.1 kmh 30.01 in1016.3 mb 0.00 in0.0 mm 0.00 in0.0 mm 0.00 in0.0 mm
01:41 PM 85.6°F29.8°C 69.9°F21.1°C 59% 1.8 mph SE2.9 kmh SE 10.0 mph16.1 kmh 30.00 in1015.9 mb 0.00 in0.0 mm 0.00 in0.0 mm 0.00 in0.0 mm
01:46 PM 85.8°F29.9°C 69.6°F20.9°C 58% 2.6 mph E4.2 kmh E 10.0 mph16.1 kmh 30.00 in1015.9 mb 0.00 in0.0 mm 0.00 in0.0 mm 0.00 in0.0 mm
01:51 PM 86.0°F30.0°C 70.0°F21.1°C 59% 1.6 mph E2.6 kmh E 8.0 mph12.9 kmh 30.00 in1015.9 mb 0.00 in0.0 mm 0.00 in0.0 mm 0.00 in0.0 mm
01:56 PM 86.3°F30.2°C 69.0°F20.6°C 56% 3.7 mph E6.0 kmh E 7.0 mph11.3 kmh 30.00 in1015.9 mb 0.00 in0.0 mm 0.00 in0.0 mm 0.00 in0.0 mm
02:00 PM 86.1°F30.1°C 68.8°F20.4°C 56% 1.7 mph ESE2.7 kmh ESE 7.0 mph11.3 kmh 29.99 in1015.6 mb 0.00 in0.0 mm 0.00 in0.0 mm 0.00 in0.0 mm
02:05 PM 86.5°F30.3°C 68.6°F20.3°C 55% 2.0 mph E3.2 kmh E 7.0 mph11.3 kmh 29.99 in1015.6 mb 0.00 in0.0 mm 0.00 in0.0 mm 0.00 in0.0 mm
02:10 PM 87.0°F30.6°C 69.1°F20.6°C 55% 5.8 mph E9.3 kmh E 9.0 mph14.5 kmh 29.98 in1015.2 mb 0.00 in0.0 mm 0.00 in0.0 mm 0.00 in0.0 mm
02:15 PM 87.0°F30.6°C 69.1°F20.6°C 55% 3.0 mph ENE4.8 kmh ENE 9.0 mph14.5 kmh 29.98 in1015.2 mb 0.00 in0.0 mm 0.00 in0.0 mm 0.00 in0.0 mm
02:20 PM 87.5°F30.8°C 69.6°F20.9°C 55% 1.7 mph E2.7 kmh E 9.0 mph14.5 kmh 29.98 in1015.2 mb 0.00 in0.0 mm 0.00 in0.0 mm 0.00 in0.0 mm
02:25 PM 87.7°F30.9°C 68.1°F20.1°C 52% 1.8 mph E2.9 kmh E 9.0 mph14.5 kmh 29.98 in1015.2 mb 0.00 in0.0 mm 0.00 in0.0 mm 0.00 in0.0 mm
02:30 PM 87.6°F30.9°C 68.4°F20.2°C 53% 2.1 mph SE3.4 kmh SE 9.0 mph14.5 kmh 29.97 in1014.9 mb 0.00 in0.0 mm 0.00 in0.0 mm 0.00 in0.0 mm
02:35 PM 87.7°F30.9°C 67.3°F19.6°C 51% 2.4 mph E3.9 kmh E 8.0 mph12.9 kmh 29.97 in1014.9 mb 0.00 in0.0 mm 0.00 in0.0 mm 0.00 in0.0 mm
02:44 PM 88.2°F31.2°C 68.0°F20.0°C 51% 1.0 mph SE1.6 kmh SE 8.0 mph12.9 kmh 29.97 in1014.9 mb 0.00 in0.0 mm 0.00 in0.0 mm 0.00 in0.0 mm
02:52 PM 89.2°F31.8°C 68.3°F20.2°C 50% 1.8 mph SE2.9 kmh SE 6.0 mph9.7 kmh 29.96 in1014.6 mb 0.00 in0.0 mm 0.00 in0.0 mm 0.00 in0.0 mm
03:00 PM 88.5°F31.4°C 67.7°F19.8°C 50% 4.4 mph E7.1 kmh E 10.0 mph16.1 kmh 29.96 in1014.6 mb 0.00 in0.0 mm 0.00 in0.0 mm 0.00 in0.0 mm
03:07 PM 87.9°F31.1°C 67.1°F19.5°C 50% 2.9 mph E4.7 kmh E 10.0 mph16.1 kmh 29.96 in1014.6 mb 0.00 in0.0 mm 0.00 in0.0 mm 0.00 in0.0 mm
03:15 PM 88.5°F31.4°C 68.2°F20.1°C 51% 2.3 mph SE3.7 kmh SE 10.0 mph16.1 kmh 29.95 in1014.2 mb 0.00 in0.0 mm 0.00 in0.0 mm 0.00 in0.0 mm
03:20 PM 89.0°F31.7°C 66.8°F19.3°C 48% 1.6 mph SE2.6 kmh SE 5.0 mph8.0 kmh 29.95 in1014.2 mb 0.00 in0.0 mm 0.00 in0.0 mm 0.00 in0.0 mm
03:25 PM 88.9°F31.6°C 67.4°F19.7°C 49% 3.0 mph NE4.8 kmh NE 6.0 mph9.7 kmh 29.95 in1014.2 mb 0.00 in0.0 mm 0.00 in0.0 mm 0.00 in0.0 mm
03:30 PM 88.7°F31.5°C 67.8°F19.9°C 50% 2.6 mph SE4.2 kmh SE 6.0 mph9.7 kmh 29.95 in1014.2 mb 0.00 in0.0 mm 0.00 in0.0 mm 0.00 in0.0 mm
03:35 PM 88.0°F31.1°C 67.8°F19.9°C 51% 3.4 mph SE5.5 kmh SE 7.0 mph11.3 kmh 29.95 in1014.2 mb 0.00 in0.0 mm 0.00 in0.0 mm 0.00 in0.0 mm
03:41 PM 87.4°F30.8°C 67.8°F19.9°C 52% 1.8 mph ESE2.9 kmh ESE 7.0 mph11.3 kmh 29.94 in1013.9 mb 0.00 in0.0 mm 0.00 in0.0 mm 0.00 in0.0 mm
03:46 PM 87.5°F30.8°C 67.3°F19.6°C 51% 2.0 mph ENE3.2 kmh ENE 7.0 mph11.3 kmh 29.94 in1013.9 mb 0.00 in0.0 mm 0.00 in0.0 mm 0.00 in0.0 mm
03:51 PM 87.4°F30.8°C 66.5°F19.2°C 50% 3.0 mph NE4.8 kmh NE 6.0 mph9.7 kmh 29.94 in1013.9 mb 0.00 in0.0 mm 0.00 in0.0 mm 0.00 in0.0 mm
03:56 PM 87.8°F31.0°C 66.4°F19.1°C 49% 2.3 mph NNE3.7 kmh NNE 6.0 mph9.7 kmh 29.94 in1013.9 mb 0.00 in0.0 mm 0.00 in0.0 mm 0.00 in0.0 mm
04:01 PM 88.7°F31.5°C 67.2°F19.6°C 49% 1.0 mph ESE1.6 kmh ESE 6.0 mph9.7 kmh 29.94 in1013.9 mb 0.00 in0.0 mm 0.00 in0.0 mm 0.00 in0.0 mm
04:07 PM 89.1°F31.7°C 67.0°F19.4°C 48% 1.0 mph S1.6 kmh S 6.0 mph9.7 kmh 29.94 in1013.9 mb 0.00 in0.0 mm 0.00 in0.0 mm 0.00 in0.0 mm
04:12 PM 89.1°F31.7°C 67.6°F19.8°C 49% 2.5 mph NE4.0 kmh NE 6.0 mph9.7 kmh 29.93 in1013.5 mb 0.00 in0.0 mm 0.00 in0.0 mm 0.00 in0.0 mm
04:17 PM 89.0°F31.7°C 67.5°F19.7°C 49% 2.3 mph NE3.7 kmh NE 5.0 mph8.0 kmh 29.93 in1013.5 mb 0.00 in0.0 mm 0.00 in0.0 mm 0.00 in0.0 mm
04:22 PM 89.7°F32.1°C 69.2°F20.7°C 51% Calm Calm 5.0 mph8.0 kmh 29.93 in1013.5 mb 0.00 in0.0 mm 0.00 in0.0 mm 0.00 in0.0 mm
04:27 PM 90.2°F32.3°C 68.6°F20.3°C 49% 1.4 mph NE2.3 kmh NE 5.0 mph8.0 kmh 29.93 in1013.5 mb 0.00 in0.0 mm 0.00 in0.0 mm 0.00 in0.0 mm
04:33 PM 90.1°F32.3°C 69.1°F20.6°C 50% 2.6 mph N4.2 kmh N 7.0 mph11.3 kmh 29.93 in1013.5 mb 0.00 in0.0 mm 0.00 in0.0 mm 0.00 in0.0 mm
04:38 PM 89.4°F31.9°C 68.3°F20.2°C 50% 3.2 mph N5.1 kmh N 7.0 mph11.3 kmh 29.93 in1013.5 mb 0.00 in0.0 mm 0.00 in0.0 mm 0.00 in0.0 mm
04:43 PM 89.1°F31.7°C 68.8°F20.4°C 51% 4.0 mph NE6.4 kmh NE 7.0 mph11.3 kmh 29.93 in1013.5 mb 0.00 in0.0 mm 0.00 in0.0 mm 0.00 in0.0 mm
04:48 PM 89.1°F31.7°C 69.2°F20.7°C 52% 3.2 mph NNE5.1 kmh NNE 7.0 mph11.3 kmh 29.93 in1013.5 mb 0.00 in0.0 mm 0.00 in0.0 mm 0.00 in0.0 mm
04:53 PM 88.4°F31.3°C 68.7°F20.4°C 52% 3.7 mph ENE6.0 kmh ENE 10.0 mph16.1 kmh 29.93 in1013.5 mb 0.00 in0.0 mm 0.00 in0.0 mm 0.00 in0.0 mm
04:59 PM 87.7°F30.9°C 68.7°F20.4°C 53% 2.5 mph ENE4.0 kmh ENE 10.0 mph16.1 kmh 29.93 in1013.5 mb 0.00 in0.0 mm 0.00 in0.0 mm 0.00 in0.0 mm
05:04 PM 87.2°F30.7°C 68.8°F20.4°C 54% 1.4 mph ENE2.3 kmh ENE 10.0 mph16.1 kmh 29.93 in1013.5 mb 0.00 in0.0 mm 0.00 in0.0 mm 0.00 in0.0 mm
05:09 PM 87.1°F30.6°C 69.0°F20.6°C 55% 2.4 mph E3.9 kmh E 10.0 mph16.1 kmh 29.93 in1013.5 mb 0.00 in0.0 mm 0.00 in0.0 mm 0.00 in0.0 mm
05:14 PM 87.4°F30.8°C 69.5°F20.8°C 55% 2.3 mph NE3.7 kmh NE 7.0 mph11.3 kmh 29.93 in1013.5 mb 0.00 in0.0 mm 0.00 in0.0 mm 0.00 in0.0 mm
05:19 PM 87.6°F30.9°C 69.1°F20.6°C 54% 5.3 mph E8.5 kmh E 8.0 mph12.9 kmh 29.93 in1013.5 mb 0.00 in0.0 mm 0.00 in0.0 mm 0.00 in0.0 mm
05:25 PM 87.6°F30.9°C 68.9°F20.5°C 54% 3.7 mph ENE6.0 kmh ENE 10.0 mph16.1 kmh 29.93 in1013.5 mb 0.00 in0.0 mm 0.00 in0.0 mm 0.00 in0.0 mm
05:30 PM 87.6°F30.9°C 69.1°F20.6°C 54% 3.4 mph E5.5 kmh E 10.0 mph16.1 kmh 29.93 in1013.5 mb 0.00 in0.0 mm 0.00 in0.0 mm 0.00 in0.0 mm
05:35 PM 87.7°F30.9°C 69.2°F20.7°C 54% 3.4 mph E5.5 kmh E 10.0 mph16.1 kmh 29.93 in1013.5 mb 0.00 in0.0 mm 0.00 in0.0 mm 0.00 in0.0 mm
05:40 PM 87.5°F30.8°C 68.5°F20.3°C 53% 4.5 mph E7.2 kmh E 9.0 mph14.5 kmh 29.93 in1013.5 mb 0.00 in0.0 mm 0.00 in0.0 mm 0.00 in0.0 mm
05:45 PM 87.4°F30.8°C 68.2°F20.1°C 53% 5.2 mph E8.4 kmh E 9.0 mph14.5 kmh 29.93 in1013.5 mb 0.00 in0.0 mm 0.00 in0.0 mm 0.00 in0.0 mm
05:51 PM 87.6°F30.9°C 68.6°F20.3°C 53% 3.2 mph E5.1 kmh E 9.0 mph14.5 kmh 29.93 in1013.5 mb 0.00 in0.0 mm 0.00 in0.0 mm 0.00 in0.0 mm
05:56 PM 87.6°F30.9°C 68.9°F20.5°C 54% 3.2 mph ENE5.1 kmh ENE 9.0 mph14.5 kmh 29.93 in1013.5 mb 0.00 in0.0 mm 0.00 in0.0 mm 0.00 in0.0 mm
06:01 PM 87.7°F30.9°C 69.2°F20.7°C 54% 2.8 mph E4.5 kmh E 9.0 mph14.5 kmh 29.93 in1013.5 mb 0.00 in0.0 mm 0.00 in0.0 mm 0.00 in0.0 mm
06:06 PM 87.6°F30.9°C 68.9°F20.5°C 54% 2.8 mph E4.5 kmh E 7.0 mph11.3 kmh 29.93 in1013.5 mb 0.00 in0.0 mm 0.00 in0.0 mm 0.00 in0.0 mm
06:11 PM 87.6°F30.9°C 68.6°F20.3°C 53% 2.8 mph E4.5 kmh E 7.0 mph11.3 kmh 29.93 in1013.5 mb 0.00 in0.0 mm 0.00 in0.0 mm 0.00 in0.0 mm
06:17 PM 87.4°F30.8°C 70.6°F21.4°C 57% 2.0 mph SSW3.2 kmh SSW 7.0 mph11.3 kmh 29.93 in1013.5 mb 0.00 in0.0 mm 0.00 in0.0 mm 0.00 in0.0 mm
06:22 PM 86.1°F30.1°C 70.4°F21.3°C 59% 3.1 mph S5.0 kmh S 7.0 mph11.3 kmh 29.94 in1013.9 mb 0.00 in0.0 mm 0.00 in0.0 mm 0.00 in0.0 mm
06:27 PM 84.8°F29.3°C 70.3°F21.3°C 62% 3.8 mph S6.1 kmh S 11.0 mph17.7 kmh 29.93 in1013.5 mb 0.00 in0.0 mm 0.00 in0.0 mm 0.00 in0.0 mm
06:32 PM 84.0°F28.9°C 70.5°F21.4°C 64% 1.2 mph SE1.9 kmh SE 11.0 mph17.7 kmh 29.93 in1013.5 mb 0.00 in0.0 mm 0.00 in0.0 mm 0.00 in0.0 mm
06:37 PM 83.4°F28.6°C 70.7°F21.5°C 65% 4.2 mph SE6.8 kmh SE 11.0 mph17.7 kmh 29.94 in1013.9 mb 0.00 in0.0 mm 0.00 in0.0 mm 0.00 in0.0 mm
06:43 PM 82.7°F28.2°C 70.4°F21.3°C 66% 1.4 mph ESE2.3 kmh ESE 11.0 mph17.7 kmh 29.94 in1013.9 mb 0.00 in0.0 mm 0.00 in0.0 mm 0.00 in0.0 mm
06:48 PM 82.2°F27.9°C 70.4°F21.3°C 67% 3.6 mph ESE5.8 kmh ESE 7.0 mph11.3 kmh 29.95 in1014.2 mb 0.00 in0.0 mm 0.00 in0.0 mm 0.00 in0.0 mm
06:53 PM 81.7°F27.6°C 70.4°F21.3°C 68% 1.0 mph E1.6 kmh E 7.0 mph11.3 kmh 29.95 in1014.2 mb 0.00 in0.0 mm 0.00 in0.0 mm 0.00 in0.0 mm
06:58 PM 81.6°F27.6°C 70.3°F21.3°C 68% Calm Calm 6.0 mph9.7 kmh 29.95 in1014.2 mb 0.00 in0.0 mm 0.00 in0.0 mm 0.00 in0.0 mm
07:03 PM 81.5°F27.5°C 70.6°F21.4°C 69% Calm Calm 6.0 mph9.7 kmh 29.95 in1014.2 mb 0.00 in0.0 mm 0.00 in0.0 mm 0.00 in0.0 mm
07:09 PM 81.4°F27.4°C 70.5°F21.4°C 69% Calm Calm 2.0 mph3.2 kmh 29.95 in1014.2 mb 0.00 in0.0 mm 0.00 in0.0 mm 0.00 in0.0 mm
07:14 PM 81.3°F27.4°C 70.2°F21.2°C 69% 1.3 mph NW2.1 kmh NW 2.0 mph3.2 kmh 29.95 in1014.2 mb 0.00 in0.0 mm 0.00 in0.0 mm 0.00 in0.0 mm
07:19 PM 80.9°F27.2°C 70.8°F21.6°C 71% 1.0 mph N1.6 kmh N 3.0 mph4.8 kmh 29.95 in1014.2 mb 0.00 in0.0 mm 0.00 in0.0 mm 0.00 in0.0 mm
07:24 PM 80.8°F27.1°C 70.7°F21.5°C 71% Calm Calm 3.0 mph4.8 kmh 29.95 in1014.2 mb 0.00 in0.0 mm 0.00 in0.0 mm 0.00 in0.0 mm
07:30 PM 80.7°F27.1°C 71.0°F21.7°C 72% Calm Calm 3.0 mph4.8 kmh 29.95 in1014.2 mb 0.00 in0.0 mm 0.00 in0.0 mm 0.00 in0.0 mm
07:35 PM 80.7°F27.1°C 70.4°F21.3°C 71% 1.4 mph WNW2.3 kmh WNW 3.0 mph4.8 kmh 29.95 in1014.2 mb 0.00 in0.0 mm 0.00 in0.0 mm 0.00 in0.0 mm
07:40 PM 80.7°F27.1°C 70.6°F21.4°C 71% 1.8 mph WNW2.9 kmh WNW 6.0 mph9.7 kmh 29.95 in1014.2 mb 0.00 in0.0 mm 0.00 in0.0 mm 0.00 in0.0 mm
07:45 PM 80.5°F26.9°C 71.2°F21.8°C 73% 1.7 mph NW2.7 kmh NW 6.0 mph9.7 kmh 29.95 in1014.2 mb 0.00 in0.0 mm 0.00 in0.0 mm 0.00 in0.0 mm
07:50 PM 80.1°F26.7°C 71.3°F21.8°C 74% 1.5 mph WNW2.4 kmh WNW 6.0 mph9.7 kmh 29.96 in1014.6 mb 0.00 in0.0 mm 0.00 in0.0 mm 0.00 in0.0 mm
07:56 PM 79.7°F26.5°C 71.5°F21.9°C 76% Calm Calm 5.0 mph8.0 kmh 29.96 in1014.6 mb 0.00 in0.0 mm 0.00 in0.0 mm 0.00 in0.0 mm
08:00 PM 79.5°F26.4°C 71.4°F21.9°C 76% 1.4 mph WNW2.3 kmh WNW 3.0 mph4.8 kmh 29.96 in1014.6 mb 0.00 in0.0 mm 0.00 in0.0 mm 0.00 in0.0 mm
08:05 PM 79.3°F26.3°C 71.2°F21.8°C 76% 1.0 mph W1.6 kmh W 3.0 mph4.8 kmh 29.96 in1014.6 mb 0.00 in0.0 mm 0.00 in0.0 mm 0.00 in0.0 mm
08:10 PM 78.8°F26.0°C 71.5°F21.9°C 78% 1.4 mph WNW2.3 kmh WNW 3.0 mph4.8 kmh 29.96 in1014.6 mb 0.00 in0.0 mm 0.00 in0.0 mm 0.00 in0.0 mm
08:15 PM 78.4°F25.8°C 70.6°F21.4°C 77% 1.0 mph WNW1.6 kmh WNW 3.0 mph4.8 kmh 29.96 in1014.6 mb 0.00 in0.0 mm 0.00 in0.0 mm 0.00 in0.0 mm
08:20 PM 78.1°F25.6°C 70.4°F21.3°C 77% 1.3 mph WNW2.1 kmh WNW 4.0 mph6.4 kmh 29.96 in1014.6 mb 0.00 in0.0 mm 0.00 in0.0 mm 0.00 in0.0 mm
08:26 PM 78.1°F25.6°C 70.4°F21.3°C 77% Calm Calm 4.0 mph6.4 kmh 29.97 in1014.9 mb 0.00 in0.0 mm 0.00 in0.0 mm 0.00 in0.0 mm
08:31 PM 78.1°F25.6°C 70.8°F21.6°C 78% Calm Calm 4.0 mph6.4 kmh 29.97 in1014.9 mb 0.00 in0.0 mm 0.00 in0.0 mm 0.00 in0.0 mm
08:36 PM 77.9°F25.5°C 70.9°F21.6°C 79% Calm Calm 4.0 mph6.4 kmh 29.97 in1014.9 mb 0.00 in0.0 mm 0.00 in0.0 mm 0.00 in0.0 mm
08:41 PM 77.8°F25.4°C 70.5°F21.4°C 78% Calm Calm 2.0 mph3.2 kmh 29.97 in1014.9 mb 0.00 in0.0 mm 0.00 in0.0 mm 0.00 in0.0 mm
08:46 PM 77.7°F25.4°C 70.4°F21.3°C 78% Calm Calm -- 29.98 in1015.2 mb 0.00 in0.0 mm 0.00 in0.0 mm 0.00 in0.0 mm
08:52 PM 77.7°F25.4°C 70.4°F21.3°C 78% Calm Calm -- 29.98 in1015.2 mb 0.00 in0.0 mm 0.00 in0.0 mm 0.00 in0.0 mm
08:57 PM 77.7°F25.4°C 70.4°F21.3°C 78% 1.0 mph NE1.6 kmh NE 1.0 mph1.6 kmh 29.98 in1015.2 mb 0.00 in0.0 mm 0.00 in0.0 mm 0.00 in0.0 mm
09:02 PM 77.5°F25.3°C 70.2°F21.2°C 78% 1.0 mph NE1.6 kmh NE 1.0 mph1.6 kmh 29.98 in1015.2 mb 0.00 in0.0 mm 0.00 in0.0 mm 0.00 in0.0 mm
09:07 PM 77.4°F25.2°C 70.4°F21.3°C 79% Calm Calm 1.0 mph1.6 kmh 29.99 in1015.6 mb 0.00 in0.0 mm 0.00 in0.0 mm 0.00 in0.0 mm
09:12 PM 77.2°F25.1°C 70.3°F21.3°C 79% Calm Calm 1.0 mph1.6 kmh 29.99 in1015.6 mb 0.00 in0.0 mm 0.00 in0.0 mm 0.00 in0.0 mm
09:18 PM 77.2°F25.1°C 70.3°F21.3°C 79% Calm Calm 1.0 mph1.6 kmh 29.99 in1015.6 mb 0.00 in0.0 mm 0.00 in0.0 mm 0.00 in0.0 mm
09:23 PM 77.1°F25.1°C 70.6°F21.4°C 80% 1.0 mph NE1.6 kmh NE 1.0 mph1.6 kmh 29.99 in1015.6 mb 0.00 in0.0 mm 0.00 in0.0 mm 0.00 in0.0 mm
09:28 PM 76.9°F24.9°C 70.7°F21.5°C 81% 1.4 mph NE2.3 kmh NE 2.0 mph3.2 kmh 30.00 in1015.9 mb 0.00 in0.0 mm 0.00 in0.0 mm 0.00 in0.0 mm
09:33 PM 76.7°F24.8°C 70.9°F21.6°C 82% 1.0 mph NE1.6 kmh NE 2.0 mph3.2 kmh 29.99 in1015.6 mb 0.00 in0.0 mm 0.00 in0.0 mm 0.00 in0.0 mm
09:38 PM 76.5°F24.7°C 71.0°F21.7°C 83% 1.0 mph NE1.6 kmh NE 2.0 mph3.2 kmh 29.99 in1015.6 mb 0.00 in0.0 mm 0.00 in0.0 mm 0.00 in0.0 mm
09:44 PM 76.4°F24.7°C 70.9°F21.6°C 83% 1.0 mph NE1.6 kmh NE 2.0 mph3.2 kmh 30.00 in1015.9 mb 0.00 in0.0 mm 0.00 in0.0 mm 0.00 in0.0 mm
09:49 PM 76.5°F24.7°C 70.9°F21.6°C 83% 2.2 mph E3.5 kmh E 4.0 mph6.4 kmh 30.00 in1015.9 mb 0.00 in0.0 mm 0.00 in0.0 mm 0.00 in0.0 mm
09:54 PM 76.4°F24.7°C 70.9°F21.6°C 83% 3.1 mph E5.0 kmh E 7.0 mph11.3 kmh 30.00 in1015.9 mb 0.00 in0.0 mm 0.00 in0.0 mm 0.00 in0.0 mm
09:59 PM 76.2°F24.6°C 71.4°F21.9°C 85% 2.6 mph E4.2 kmh E 7.0 mph11.3 kmh 30.00 in1015.9 mb 0.01 in0.3 mm 0.12 in3.0 mm 0.01 in0.3 mm
10:04 PM 75.7°F24.3°C 71.2°F21.8°C 86% 5.1 mph ESE8.2 kmh ESE 8.0 mph12.9 kmh 30.00 in1015.9 mb 0.01 in0.3 mm 0.00 in0.0 mm 0.01 in0.3 mm
10:10 PM 74.9°F23.8°C 71.1°F21.7°C 88% 6.7 mph E10.8 kmh E 11.0 mph17.7 kmh 30.00 in1015.9 mb 0.07 in1.8 mm 0.60 in15.2 mm 0.07 in1.8 mm
10:15 PM 74.3°F23.5°C 71.2°F21.8°C 90% 6.6 mph ESE10.6 kmh ESE 12.0 mph19.3 kmh 30.00 in1015.9 mb 0.10 in2.5 mm 0.36 in9.1 mm 0.10 in2.5 mm
10:20 PM 73.9°F23.3°C 71.1°F21.7°C 91% 6.5 mph SE10.5 kmh SE 12.0 mph19.3 kmh 30.00 in1015.9 mb 0.17 in4.3 mm 0.84 in21.3 mm 0.17 in4.3 mm
10:25 PM 73.5°F23.1°C 71.0°F21.7°C 92% 3.6 mph ESE5.8 kmh ESE 13.0 mph20.9 kmh 30.01 in1016.3 mb 0.19 in4.8 mm 0.24 in6.1 mm 0.19 in4.8 mm
10:30 PM 73.3°F22.9°C 71.1°F21.7°C 93% 6.6 mph SE10.6 kmh SE 14.0 mph22.5 kmh 30.01 in1016.3 mb 0.19 in4.8 mm 0.00 in0.0 mm 0.19 in4.8 mm
10:36 PM 73.1°F22.8°C 70.9°F21.6°C 93% 1.3 mph SE2.1 kmh SE 14.0 mph22.5 kmh 30.00 in1015.9 mb 0.20 in5.1 mm 0.10 in2.5 mm 0.20 in5.1 mm
10:41 PM 73.0°F22.8°C 70.8°F21.6°C 93% 3.8 mph ESE6.1 kmh ESE 14.0 mph22.5 kmh 30.01 in1016.3 mb 0.20 in5.1 mm 0.00 in0.0 mm 0.20 in5.1 mm
10:46 PM 72.9°F22.7°C 70.7°F21.5°C 93% 3.7 mph SE6.0 kmh SE 14.0 mph22.5 kmh 30.01 in1016.3 mb 0.20 in5.1 mm 0.00 in0.0 mm 0.20 in5.1 mm
10:51 PM 72.7°F22.6°C 70.8°F21.6°C 94% 4.8 mph SE7.7 kmh SE 11.0 mph17.7 kmh 30.01 in1016.3 mb 0.20 in5.1 mm 0.00 in0.0 mm 0.20 in5.1 mm
10:56 PM 72.5°F22.5°C 70.3°F21.3°C 93% 4.7 mph SE7.6 kmh SE 11.0 mph17.7 kmh 30.01 in1016.3 mb 0.20 in5.1 mm 0.00 in0.0 mm 0.21 in5.3 mm
11:02 PM 72.2°F22.3°C 70.3°F21.3°C 94% 2.5 mph SE4.0 kmh SE 11.0 mph17.7 kmh 30.00 in1015.9 mb 0.21 in5.3 mm 0.01 in0.3 mm 0.22 in5.6 mm
11:07 PM 71.9°F22.2°C 69.7°F20.9°C 93% 2.7 mph SE4.3 kmh SE 11.0 mph17.7 kmh 30.01 in1016.3 mb 0.18 in4.6 mm 0.00 in0.0 mm 0.21 in5.3 mm
11:12 PM 71.6°F22.0°C 69.4°F20.8°C 93% 1.5 mph SE2.4 kmh SE 11.0 mph17.7 kmh 30.01 in1016.3 mb 0.13 in3.3 mm 0.00 in0.0 mm 0.21 in5.3 mm
11:17 PM 71.4°F21.9°C 69.2°F20.7°C 93% 1.1 mph SSE1.8 kmh SSE 8.0 mph12.9 kmh 30.01 in1016.3 mb 0.06 in1.5 mm 0.00 in0.0 mm 0.21 in5.3 mm
11:22 PM 71.3°F21.8°C 69.1°F20.6°C 93% 1.7 mph SE2.7 kmh SE 8.0 mph12.9 kmh 30.01 in1016.3 mb 0.05 in1.3 mm 0.00 in0.0 mm 0.01 in0.3 mm
11:28 PM 71.2°F21.8°C 69.4°F20.8°C 94% 1.8 mph S2.9 kmh S 5.0 mph8.0 kmh 30.01 in1016.3 mb 0.04 in1.0 mm 0.00 in0.0 mm 0.01 in0.3 mm
11:33 PM 71.1°F21.7°C 69.3°F20.7°C 94% 1.1 mph SE1.8 kmh SE 5.0 mph8.0 kmh 30.02 in1016.6 mb 0.03 in0.8 mm 0.00 in0.0 mm 0.01 in0.3 mm
11:38 PM 71.2°F21.8°C 69.4°F20.8°C 94% 1.6 mph SE2.6 kmh SE 5.0 mph8.0 kmh 30.01 in1016.3 mb 0.04 in1.0 mm 0.12 in3.0 mm 0.02 in0.5 mm
11:43 PM 71.2°F21.8°C 69.7°F20.9°C 95% 1.5 mph SE2.4 kmh SE 5.0 mph8.0 kmh 30.01 in1016.3 mb 0.04 in1.0 mm 0.00 in0.0 mm 0.02 in0.5 mm
11:48 PM 71.2°F21.8°C 69.7°F20.9°C 95% 1.5 mph ESE2.4 kmh ESE 3.0 mph4.8 kmh 30.01 in1016.3 mb 0.04 in1.0 mm 0.00 in0.0 mm 0.02 in0.5 mm
11:54 PM 71.3°F21.8°C 69.8°F21.0°C 95% 1.0 mph SE1.6 kmh SE 3.0 mph4.8 kmh 30.01 in1016.3 mb 0.04 in1.0 mm 0.00 in0.0 mm 0.02 in0.5 mm
11:59 PM 71.3°F21.8°C 69.8°F21.0°C 95% 1.4 mph ESE2.3 kmh ESE 3.0 mph4.8 kmh 30.01 in1016.3 mb 0.03 in0.8 mm 0.00 in0.0 mm 0.02 in0.5 mm